sensor_id;sensor_type;location;lat;lon;timestamp;P1;durP1;ratioP1;P2;durP2;ratioP2
19301;SDS011;9785;59.362;12.152;2023-11-21T00:01:23;2.27;;;1.70;;
19301;SDS011;9785;59.362;12.152;2023-11-21T00:03:52;2.50;;;2.20;;
19301;SDS011;9785;59.362;12.152;2023-11-21T00:06:21;3.37;;;1.83;;
19301;SDS011;9785;59.362;12.152;2023-11-21T00:08:50;2.67;;;2.20;;
19301;SDS011;9785;59.362;12.152;2023-11-21T00:11:18;2.20;;;2.00;;
19301;SDS011;9785;59.362;12.152;2023-11-21T00:13:46;2.77;;;1.83;;
19301;SDS011;9785;59.362;12.152;2023-11-21T00:16:16;2.07;;;1.87;;
19301;SDS011;9785;59.362;12.152;2023-11-21T00:18:45;2.93;;;2.17;;
19301;SDS011;9785;59.362;12.152;2023-11-21T00:21:15;2.30;;;2.00;;
19301;SDS011;9785;59.362;12.152;2023-11-21T00:23:43;3.77;;;2.30;;
19301;SDS011;9785;59.362;12.152;2023-11-21T00:26:11;3.33;;;2.10;;
19301;SDS011;9785;59.362;12.152;2023-11-21T00:28:40;2.63;;;2.23;;
19301;SDS011;9785;59.362;12.152;2023-11-21T00:31:09;2.40;;;2.17;;
19301;SDS011;9785;59.362;12.152;2023-11-21T00:33:37;2.60;;;1.90;;
19301;SDS011;9785;59.362;12.152;2023-11-21T00:36:06;2.23;;;1.80;;
19301;SDS011;9785;59.362;12.152;2023-11-21T00:38:37;5.23;;;1.93;;
19301;SDS011;9785;59.362;12.152;2023-11-21T00:41:06;2.97;;;2.10;;
19301;SDS011;9785;59.362;12.152;2023-11-21T00:43:35;3.67;;;2.20;;
19301;SDS011;9785;59.362;12.152;2023-11-21T00:46:03;2.17;;;2.00;;
19301;SDS011;9785;59.362;12.152;2023-11-21T00:48:33;2.33;;;1.67;;
19301;SDS011;9785;59.362;12.152;2023-11-21T00:51:02;2.57;;;2.00;;
19301;SDS011;9785;59.362;12.152;2023-11-21T00:53:30;2.03;;;1.87;;
19301;SDS011;9785;59.362;12.152;2023-11-21T00:56:00;2.40;;;1.80;;
19301;SDS011;9785;59.362;12.152;2023-11-21T00:58:29;1.80;;;1.70;;
19301;SDS011;9785;59.362;12.152;2023-11-21T01:00:57;2.17;;;1.93;;
19301;SDS011;9785;59.362;12.152;2023-11-21T01:03:26;2.30;;;1.70;;
19301;SDS011;9785;59.362;12.152;2023-11-21T01:05:54;2.60;;;2.03;;
19301;SDS011;9785;59.362;12.152;2023-11-21T01:08:22;2.10;;;1.90;;
19301;SDS011;9785;59.362;12.152;2023-11-21T01:10:51;3.83;;;1.93;;
19301;SDS011;9785;59.362;12.152;2023-11-21T01:13:21;2.73;;;1.90;;
19301;SDS011;9785;59.362;12.152;2023-11-21T01:15:49;2.87;;;2.00;;
19301;SDS011;9785;59.362;12.152;2023-11-21T01:18:18;2.23;;;1.90;;
19301;SDS011;9785;59.362;12.152;2023-11-21T01:20:46;1.97;;;1.77;;
19301;SDS011;9785;59.362;12.152;2023-11-21T01:23:14;2.33;;;2.17;;
19301;SDS011;9785;59.362;12.152;2023-11-21T01:25:43;2.37;;;2.03;;
19301;SDS011;9785;59.362;12.152;2023-11-21T01:28:11;2.03;;;1.87;;
19301;SDS011;9785;59.362;12.152;2023-11-21T01:30:41;3.13;;;2.00;;
19301;SDS011;9785;59.362;12.152;2023-11-21T01:33:11;2.67;;;2.23;;
19301;SDS011;9785;59.362;12.152;2023-11-21T01:35:40;4.43;;;1.97;;
19301;SDS011;9785;59.362;12.152;2023-11-21T01:38:08;2.10;;;1.90;;
19301;SDS011;9785;59.362;12.152;2023-11-21T01:40:36;5.37;;;2.30;;
19301;SDS011;9785;59.362;12.152;2023-11-21T01:43:05;1.93;;;1.83;;
19301;SDS011;9785;59.362;12.152;2023-11-21T01:45:35;1.90;;;1.80;;
19301;SDS011;9785;59.362;12.152;2023-11-21T01:48:05;2.67;;;2.20;;
19301;SDS011;9785;59.362;12.152;2023-11-21T01:50:33;2.87;;;2.00;;
19301;SDS011;9785;59.362;12.152;2023-11-21T01:53:02;2.93;;;2.20;;
19301;SDS011;9785;59.362;12.152;2023-11-21T01:55:31;2.53;;;1.90;;
19301;SDS011;9785;59.362;12.152;2023-11-21T01:58:00;3.10;;;2.07;;
19301;SDS011;9785;59.362;12.152;2023-11-21T02:00:28;2.40;;;2.00;;
19301;SDS011;9785;59.362;12.152;2023-11-21T02:02:57;2.00;;;1.90;;
19301;SDS011;9785;59.362;12.152;2023-11-21T02:05:27;2.60;;;1.87;;
19301;SDS011;9785;59.362;12.152;2023-11-21T02:07:56;1.90;;;1.80;;
19301;SDS011;9785;59.362;12.152;2023-11-21T02:10:24;1.80;;;1.70;;
19301;SDS011;9785;59.362;12.152;2023-11-21T02:12:53;2.20;;;2.00;;
19301;SDS011;9785;59.362;12.152;2023-11-21T02:15:22;2.03;;;1.80;;
19301;SDS011;9785;59.362;12.152;2023-11-21T02:17:55;4.07;;;1.93;;
19301;SDS011;9785;59.362;12.152;2023-11-21T02:20:25;4.77;;;2.00;;
19301;SDS011;9785;59.362;12.152;2023-11-21T02:22:57;2.43;;;1.70;;
19301;SDS011;9785;59.362;12.152;2023-11-21T02:25:26;2.10;;;1.90;;
19301;SDS011;9785;59.362;12.152;2023-11-21T02:27:56;2.10;;;1.90;;
19301;SDS011;9785;59.362;12.152;2023-11-21T02:30:25;1.43;;;1.33;;
19301;SDS011;9785;59.362;12.152;2023-11-21T02:32:54;2.17;;;1.70;;
19301;SDS011;9785;59.362;12.152;2023-11-21T02:35:24;1.90;;;1.80;;
19301;SDS011;9785;59.362;12.152;2023-11-21T02:37:53;1.73;;;1.63;;
19301;SDS011;9785;59.362;12.152;2023-11-21T02:40:23;2.63;;;1.87;;
19301;SDS011;9785;59.362;12.152;2023-11-21T02:42:53;3.43;;;2.10;;
19301;SDS011;9785;59.362;12.152;2023-11-21T02:45:24;1.87;;;1.77;;
19301;SDS011;9785;59.362;12.152;2023-11-21T02:47:52;2.43;;;1.90;;
19301;SDS011;9785;59.362;12.152;2023-11-21T02:50:24;1.80;;;1.70;;
19301;SDS011;9785;59.362;12.152;2023-11-21T02:52:54;1.83;;;1.70;;
19301;SDS011;9785;59.362;12.152;2023-11-21T02:55:25;2.00;;;1.80;;
19301;SDS011;9785;59.362;12.152;2023-11-21T02:57:53;1.60;;;1.50;;
19301;SDS011;9785;59.362;12.152;2023-11-21T03:00:23;1.70;;;1.60;;
19301;SDS011;9785;59.362;12.152;2023-11-21T03:02:53;1.80;;;1.70;;
19301;SDS011;9785;59.362;12.152;2023-11-21T03:05:23;1.77;;;1.57;;
19301;SDS011;9785;59.362;12.152;2023-11-21T03:07:52;2.77;;;1.90;;
19301;SDS011;9785;59.362;12.152;2023-11-21T03:10:20;1.70;;;1.60;;
19301;SDS011;9785;59.362;12.152;2023-11-21T03:12:51;1.90;;;1.80;;
19301;SDS011;9785;59.362;12.152;2023-11-21T03:15:19;1.73;;;1.63;;
19301;SDS011;9785;59.362;12.152;2023-11-21T03:17:48;2.73;;;1.60;;
19301;SDS011;9785;59.362;12.152;2023-11-21T03:20:17;1.40;;;1.33;;
19301;SDS011;9785;59.362;12.152;2023-11-21T03:22:45;1.70;;;1.60;;
19301;SDS011;9785;59.362;12.152;2023-11-21T03:25:13;1.93;;;1.60;;
19301;SDS011;9785;59.362;12.152;2023-11-21T03:27:44;1.70;;;1.60;;
19301;SDS011;9785;59.362;12.152;2023-11-21T03:30:14;1.80;;;1.60;;
19301;SDS011;9785;59.362;12.152;2023-11-21T03:32:43;1.60;;;1.50;;
19301;SDS011;9785;59.362;12.152;2023-11-21T03:35:11;1.80;;;1.70;;
19301;SDS011;9785;59.362;12.152;2023-11-21T03:37:40;1.67;;;1.57;;
19301;SDS011;9785;59.362;12.152;2023-11-21T03:40:10;1.57;;;1.47;;
19301;SDS011;9785;59.362;12.152;2023-11-21T03:42:39;1.40;;;1.33;;
19301;SDS011;9785;59.362;12.152;2023-11-21T03:45:08;1.60;;;1.50;;
19301;SDS011;9785;59.362;12.152;2023-11-21T03:47:40;2.30;;;1.73;;
19301;SDS011;9785;59.362;12.152;2023-11-21T03:50:09;2.03;;;1.50;;
19301;SDS011;9785;59.362;12.152;2023-11-21T03:52:38;1.57;;;1.47;;
19301;SDS011;9785;59.362;12.152;2023-11-21T03:55:06;1.73;;;1.60;;
19301;SDS011;9785;59.362;12.152;2023-11-21T03:57:36;1.77;;;1.67;;
19301;SDS011;9785;59.362;12.152;2023-11-21T04:00:05;2.33;;;1.50;;
19301;SDS011;9785;59.362;12.152;2023-11-21T04:02:36;1.60;;;1.50;;
19301;SDS011;9785;59.362;12.152;2023-11-21T04:05:07;2.33;;;1.50;;
19301;SDS011;9785;59.362;12.152;2023-11-21T04:07:37;1.50;;;1.40;;
19301;SDS011;9785;59.362;12.152;2023-11-21T04:10:06;1.60;;;1.50;;
19301;SDS011;9785;59.362;12.152;2023-11-21T04:12:36;2.53;;;1.63;;
19301;SDS011;9785;59.362;12.152;2023-11-21T04:15:04;2.13;;;1.50;;
19301;SDS011;9785;59.362;12.152;2023-11-21T04:17:35;1.30;;;1.20;;
19301;SDS011;9785;59.362;12.152;2023-11-21T04:20:04;1.47;;;1.47;;
19301;SDS011;9785;59.362;12.152;2023-11-21T04:22:37;2.33;;;1.70;;
19301;SDS011;9785;59.362;12.152;2023-11-21T04:25:09;1.83;;;1.27;;
19301;SDS011;9785;59.362;12.152;2023-11-21T04:27:38;1.40;;;1.40;;
19301;SDS011;9785;59.362;12.152;2023-11-21T04:30:07;1.30;;;1.20;;
19301;SDS011;9785;59.362;12.152;2023-11-21T04:32:37;1.50;;;1.40;;
19301;SDS011;9785;59.362;12.152;2023-11-21T04:35:07;1.63;;;1.53;;
19301;SDS011;9785;59.362;12.152;2023-11-21T04:37:37;1.93;;;1.73;;
19301;SDS011;9785;59.362;12.152;2023-11-21T04:40:07;1.93;;;1.30;;
19301;SDS011;9785;59.362;12.152;2023-11-21T04:42:36;1.50;;;1.40;;
19301;SDS011;9785;59.362;12.152;2023-11-21T04:45:04;1.50;;;1.40;;
19301;SDS011;9785;59.362;12.152;2023-11-21T04:47:36;1.40;;;1.30;;
19301;SDS011;9785;59.362;12.152;2023-11-21T04:50:05;1.67;;;1.57;;
19301;SDS011;9785;59.362;12.152;2023-11-21T04:52:34;1.60;;;1.50;;
19301;SDS011;9785;59.362;12.152;2023-11-21T04:55:04;1.70;;;1.60;;
19301;SDS011;9785;59.362;12.152;2023-11-21T04:57:33;1.50;;;1.40;;
19301;SDS011;9785;59.362;12.152;2023-11-21T05:00:01;1.40;;;1.37;;
19301;SDS011;9785;59.362;12.152;2023-11-21T05:02:32;1.73;;;1.50;;
19301;SDS011;9785;59.362;12.152;2023-11-21T05:05:02;2.20;;;1.57;;
19301;SDS011;9785;59.362;12.152;2023-11-21T05:07:32;1.53;;;1.43;;
19301;SDS011;9785;59.362;12.152;2023-11-21T05:10:04;3.53;;;1.67;;
19301;SDS011;9785;59.362;12.152;2023-11-21T05:12:37;1.53;;;1.43;;
19301;SDS011;9785;59.362;12.152;2023-11-21T05:15:08;1.50;;;1.40;;
19301;SDS011;9785;59.362;12.152;2023-11-21T05:17:37;1.90;;;1.50;;
19301;SDS011;9785;59.362;12.152;2023-11-21T05:20:09;1.53;;;1.43;;
19301;SDS011;9785;59.362;12.152;2023-11-21T05:22:40;1.47;;;1.43;;
19301;SDS011;9785;59.362;12.152;2023-11-21T05:25:11;1.73;;;1.63;;
19301;SDS011;9785;59.362;12.152;2023-11-21T05:27:40;1.90;;;1.50;;
19301;SDS011;9785;59.362;12.152;2023-11-21T05:30:08;1.50;;;1.40;;
19301;SDS011;9785;59.362;12.152;2023-11-21T05:32:38;1.73;;;1.63;;
19301;SDS011;9785;59.362;12.152;2023-11-21T05:35:09;1.70;;;1.60;;
19301;SDS011;9785;59.362;12.152;2023-11-21T05:37:41;1.63;;;1.53;;
19301;SDS011;9785;59.362;12.152;2023-11-21T05:40:11;1.83;;;1.60;;
19301;SDS011;9785;59.362;12.152;2023-11-21T05:42:40;1.70;;;1.60;;
19301;SDS011;9785;59.362;12.152;2023-11-21T05:45:09;1.80;;;1.70;;
19301;SDS011;9785;59.362;12.152;2023-11-21T05:47:39;1.43;;;1.33;;
19301;SDS011;9785;59.362;12.152;2023-11-21T05:50:08;2.67;;;1.50;;
19301;SDS011;9785;59.362;12.152;2023-11-21T05:52:39;1.50;;;1.40;;
19301;SDS011;9785;59.362;12.152;2023-11-21T05:55:07;1.60;;;1.50;;
19301;SDS011;9785;59.362;12.152;2023-11-21T05:57:39;1.60;;;1.40;;
19301;SDS011;9785;59.362;12.152;2023-11-21T06:00:09;1.63;;;1.53;;
19301;SDS011;9785;59.362;12.152;2023-11-21T06:02:44;1.70;;;1.60;;
19301;SDS011;9785;59.362;12.152;2023-11-21T06:05:13;1.37;;;1.27;;
19301;SDS011;9785;59.362;12.152;2023-11-21T06:07:42;1.40;;;1.30;;
19301;SDS011;9785;59.362;12.152;2023-11-21T06:10:10;1.20;;;1.20;;
19301;SDS011;9785;59.362;12.152;2023-11-21T06:12:42;1.70;;;1.60;;
19301;SDS011;9785;59.362;12.152;2023-11-21T06:15:11;1.63;;;1.43;;
19301;SDS011;9785;59.362;12.152;2023-11-21T06:17:41;1.60;;;1.50;;
19301;SDS011;9785;59.362;12.152;2023-11-21T06:20:11;2.13;;;1.40;;
19301;SDS011;9785;59.362;12.152;2023-11-21T06:22:42;2.83;;;1.50;;
19301;SDS011;9785;59.362;12.152;2023-11-21T06:25:11;1.50;;;1.40;;
19301;SDS011;9785;59.362;12.152;2023-11-21T06:27:42;2.70;;;1.50;;
19301;SDS011;9785;59.362;12.152;2023-11-21T06:30:12;1.50;;;1.40;;
19301;SDS011;9785;59.362;12.152;2023-11-21T06:32:42;1.50;;;1.40;;
19301;SDS011;9785;59.362;12.152;2023-11-21T06:35:13;4.13;;;1.40;;
19301;SDS011;9785;59.362;12.152;2023-11-21T06:37:43;1.60;;;1.23;;
19301;SDS011;9785;59.362;12.152;2023-11-21T06:40:15;1.70;;;1.40;;
19301;SDS011;9785;59.362;12.152;2023-11-21T06:42:47;1.53;;;1.23;;
19301;SDS011;9785;59.362;12.152;2023-11-21T06:45:17;1.60;;;1.50;;
19301;SDS011;9785;59.362;12.152;2023-11-21T06:47:46;1.50;;;1.40;;
19301;SDS011;9785;59.362;12.152;2023-11-21T06:50:16;1.80;;;1.60;;
19301;SDS011;9785;59.362;12.152;2023-11-21T06:52:44;2.97;;;1.40;;
19301;SDS011;9785;59.362;12.152;2023-11-21T06:55:13;1.53;;;1.43;;
19301;SDS011;9785;59.362;12.152;2023-11-21T06:57:42;1.20;;;1.10;;
19301;SDS011;9785;59.362;12.152;2023-11-21T07:00:13;1.20;;;1.20;;
19301;SDS011;9785;59.362;12.152;2023-11-21T07:02:45;1.73;;;1.63;;
19301;SDS011;9785;59.362;12.152;2023-11-21T07:05:13;1.33;;;1.23;;
19301;SDS011;9785;59.362;12.152;2023-11-21T07:07:42;1.47;;;1.37;;
19301;SDS011;9785;59.362;12.152;2023-11-21T07:10:10;1.50;;;1.40;;
19301;SDS011;9785;59.362;12.152;2023-11-21T07:12:39;1.87;;;1.67;;
19301;SDS011;9785;59.362;12.152;2023-11-21T07:15:08;1.50;;;1.40;;
19301;SDS011;9785;59.362;12.152;2023-11-21T07:17:38;1.37;;;1.27;;
19301;SDS011;9785;59.362;12.152;2023-11-21T07:20:08;1.40;;;1.30;;
19301;SDS011;9785;59.362;12.152;2023-11-21T07:22:38;1.33;;;1.33;;
19301;SDS011;9785;59.362;12.152;2023-11-21T07:25:07;1.70;;;1.60;;
19301;SDS011;9785;59.362;12.152;2023-11-21T07:27:36;1.50;;;1.40;;
19301;SDS011;9785;59.362;12.152;2023-11-21T07:30:05;1.73;;;1.63;;
19301;SDS011;9785;59.362;12.152;2023-11-21T07:32:38;2.43;;;1.50;;
19301;SDS011;9785;59.362;12.152;2023-11-21T07:35:08;2.83;;;1.47;;
19301;SDS011;9785;59.362;12.152;2023-11-21T07:37:37;1.97;;;1.87;;
19301;SDS011;9785;59.362;12.152;2023-11-21T07:40:05;1.50;;;1.40;;
19301;SDS011;9785;59.362;12.152;2023-11-21T07:42:36;4.30;;;1.40;;
19301;SDS011;9785;59.362;12.152;2023-11-21T07:45:05;1.47;;;1.40;;
19301;SDS011;9785;59.362;12.152;2023-11-21T07:47:34;1.90;;;1.60;;
19301;SDS011;9785;59.362;12.152;2023-11-21T07:50:05;1.63;;;1.53;;
19301;SDS011;9785;59.362;12.152;2023-11-21T07:52:35;1.57;;;1.47;;
19301;SDS011;9785;59.362;12.152;2023-11-21T07:55:03;1.70;;;1.60;;
19301;SDS011;9785;59.362;12.152;2023-11-21T07:57:32;1.37;;;1.30;;
19301;SDS011;9785;59.362;12.152;2023-11-21T08:00:00;1.70;;;1.60;;
19301;SDS011;9785;59.362;12.152;2023-11-21T08:02:29;1.83;;;1.70;;
19301;SDS011;9785;59.362;12.152;2023-11-21T08:04:58;1.77;;;1.67;;
19301;SDS011;9785;59.362;12.152;2023-11-21T08:07:28;1.70;;;1.60;;
19301;SDS011;9785;59.362;12.152;2023-11-21T08:09:57;2.50;;;1.67;;
19301;SDS011;9785;59.362;12.152;2023-11-21T08:12:25;1.63;;;1.53;;
19301;SDS011;9785;59.362;12.152;2023-11-21T08:14:55;1.67;;;1.57;;
19301;SDS011;9785;59.362;12.152;2023-11-21T08:17:23;1.70;;;1.60;;
19301;SDS011;9785;59.362;12.152;2023-11-21T08:19:51;1.47;;;1.20;;
19301;SDS011;9785;59.362;12.152;2023-11-21T08:22:20;1.33;;;1.23;;
19301;SDS011;9785;59.362;12.152;2023-11-21T08:24:50;1.50;;;1.40;;
19301;SDS011;9785;59.362;12.152;2023-11-21T08:27:18;1.50;;;1.40;;
19301;SDS011;9785;59.362;12.152;2023-11-21T08:29:46;1.30;;;1.30;;
19301;SDS011;9785;59.362;12.152;2023-11-21T08:32:14;1.50;;;1.40;;
19301;SDS011;9785;59.362;12.152;2023-11-21T08:34:43;1.60;;;1.50;;
19301;SDS011;9785;59.362;12.152;2023-11-21T08:37:14;1.50;;;1.40;;
19301;SDS011;9785;59.362;12.152;2023-11-21T08:39:43;1.50;;;1.40;;
19301;SDS011;9785;59.362;12.152;2023-11-21T08:42:12;1.50;;;1.40;;
19301;SDS011;9785;59.362;12.152;2023-11-21T08:44:41;1.60;;;1.40;;
19301;SDS011;9785;59.362;12.152;2023-11-21T08:47:09;1.57;;;1.47;;
19301;SDS011;9785;59.362;12.152;2023-11-21T08:49:38;1.40;;;1.30;;
19301;SDS011;9785;59.362;12.152;2023-11-21T08:52:06;1.60;;;1.50;;
19301;SDS011;9785;59.362;12.152;2023-11-21T08:54:35;1.80;;;1.60;;
19301;SDS011;9785;59.362;12.152;2023-11-21T08:57:03;1.50;;;1.37;;
19301;SDS011;9785;59.362;12.152;2023-11-21T08:59:33;1.83;;;1.73;;
19301;SDS011;9785;59.362;12.152;2023-11-21T09:02:01;1.73;;;1.63;;
19301;SDS011;9785;59.362;12.152;2023-11-21T09:04:30;2.23;;;1.80;;
19301;SDS011;9785;59.362;12.152;2023-11-21T09:06:58;2.03;;;1.30;;
19301;SDS011;9785;59.362;12.152;2023-11-21T09:09:27;1.77;;;1.67;;
19301;SDS011;9785;59.362;12.152;2023-11-21T09:11:56;1.57;;;1.47;;
19301;SDS011;9785;59.362;12.152;2023-11-21T09:14:27;1.73;;;1.63;;
19301;SDS011;9785;59.362;12.152;2023-11-21T09:16:56;1.80;;;1.70;;
19301;SDS011;9785;59.362;12.152;2023-11-21T09:19:25;3.23;;;1.40;;
19301;SDS011;9785;59.362;12.152;2023-11-21T09:21:53;1.70;;;1.60;;
19301;SDS011;9785;59.362;12.152;2023-11-21T09:24:23;1.40;;;1.40;;
19301;SDS011;9785;59.362;12.152;2023-11-21T09:26:52;1.93;;;1.70;;
19301;SDS011;9785;59.362;12.152;2023-11-21T09:29:20;1.70;;;1.60;;
19301;SDS011;9785;59.362;12.152;2023-11-21T09:31:49;1.60;;;1.50;;
19301;SDS011;9785;59.362;12.152;2023-11-21T09:34:19;1.63;;;1.53;;
19301;SDS011;9785;59.362;12.152;2023-11-21T09:36:47;1.40;;;1.30;;
19301;SDS011;9785;59.362;12.152;2023-11-21T09:39:16;2.83;;;1.60;;
19301;SDS011;9785;59.362;12.152;2023-11-21T09:41:46;1.50;;;1.40;;
19301;SDS011;9785;59.362;12.152;2023-11-21T09:44:18;1.50;;;1.40;;
19301;SDS011;9785;59.362;12.152;2023-11-21T09:46:55;1.73;;;1.63;;
19301;SDS011;9785;59.362;12.152;2023-11-21T09:49:28;1.20;;;1.20;;
19301;SDS011;9785;59.362;12.152;2023-11-21T09:52:01;1.63;;;1.53;;
19301;SDS011;9785;59.362;12.152;2023-11-21T09:54:30;1.60;;;1.50;;
19301;SDS011;9785;59.362;12.152;2023-11-21T09:56:59;1.50;;;1.37;;
19301;SDS011;9785;59.362;12.152;2023-11-21T09:59:28;1.60;;;1.50;;
19301;SDS011;9785;59.362;12.152;2023-11-21T10:01:59;1.70;;;1.60;;
19301;SDS011;9785;59.362;12.152;2023-11-21T10:04:30;1.77;;;1.40;;
19301;SDS011;9785;59.362;12.152;2023-11-21T10:06:59;2.13;;;1.47;;
19301;SDS011;9785;59.362;12.152;2023-11-21T10:09:30;1.30;;;1.20;;
19301;SDS011;9785;59.362;12.152;2023-11-21T10:11:58;3.90;;;1.50;;
19301;SDS011;9785;59.362;12.152;2023-11-21T10:14:29;1.50;;;1.40;;
19301;SDS011;9785;59.362;12.152;2023-11-21T10:16:58;1.37;;;1.33;;
19301;SDS011;9785;59.362;12.152;2023-11-21T10:19:27;2.30;;;1.33;;
19301;SDS011;9785;59.362;12.152;2023-11-21T10:21:58;1.80;;;1.70;;
19301;SDS011;9785;59.362;12.152;2023-11-21T10:24:30;1.47;;;1.30;;
19301;SDS011;9785;59.362;12.152;2023-11-21T10:27:13;1.47;;;1.37;;
19301;SDS011;9785;59.362;12.152;2023-11-21T10:29:42;3.03;;;1.40;;
19301;SDS011;9785;59.362;12.152;2023-11-21T10:32:11;1.60;;;1.50;;
19301;SDS011;9785;59.362;12.152;2023-11-21T10:34:41;1.63;;;1.53;;
19301;SDS011;9785;59.362;12.152;2023-11-21T10:37:12;1.60;;;1.50;;
19301;SDS011;9785;59.362;12.152;2023-11-21T10:39:43;2.20;;;1.40;;
19301;SDS011;9785;59.362;12.152;2023-11-21T10:42:12;1.63;;;1.53;;
19301;SDS011;9785;59.362;12.152;2023-11-21T10:44:41;1.30;;;1.20;;
19301;SDS011;9785;59.362;12.152;2023-11-21T10:47:11;2.17;;;1.27;;
19301;SDS011;9785;59.362;12.152;2023-11-21T10:49:39;1.20;;;1.20;;
19301;SDS011;9785;59.362;12.152;2023-11-21T10:52:10;1.50;;;1.40;;
19301;SDS011;9785;59.362;12.152;2023-11-21T10:54:43;1.30;;;1.20;;
19301;SDS011;9785;59.362;12.152;2023-11-21T10:57:12;1.37;;;1.23;;
19301;SDS011;9785;59.362;12.152;2023-11-21T10:59:46;1.30;;;1.20;;
19301;SDS011;9785;59.362;12.152;2023-11-21T11:02:18;1.33;;;1.33;;
19301;SDS011;9785;59.362;12.152;2023-11-21T11:04:53;1.10;;;1.10;;
19301;SDS011;9785;59.362;12.152;2023-11-21T11:07:25;1.20;;;1.20;;
19301;SDS011;9785;59.362;12.152;2023-11-21T11:09:54;4.83;;;1.10;;
19301;SDS011;9785;59.362;12.152;2023-11-21T11:12:23;1.40;;;0.90;;
19301;SDS011;9785;59.362;12.152;2023-11-21T11:14:53;0.93;;;0.93;;
19301;SDS011;9785;59.362;12.152;2023-11-21T11:17:24;1.07;;;1.07;;
19301;SDS011;9785;59.362;12.152;2023-11-21T11:19:53;0.97;;;0.97;;
19301;SDS011;9785;59.362;12.152;2023-11-21T11:22:26;0.83;;;0.83;;
19301;SDS011;9785;59.362;12.152;2023-11-21T11:25:25;0.77;;;0.77;;
19301;SDS011;9785;59.362;12.152;2023-11-21T11:28:04;0.97;;;0.90;;
19301;SDS011;9785;59.362;12.152;2023-11-21T11:30:39;0.80;;;0.80;;
19301;SDS011;9785;59.362;12.152;2023-11-21T11:33:24;0.70;;;0.70;;
19301;SDS011;9785;59.362;12.152;2023-11-21T11:36:04;1.00;;;0.97;;
19301;SDS011;9785;59.362;12.152;2023-11-21T11:38:37;0.70;;;0.70;;
19301;SDS011;9785;59.362;12.152;2023-11-21T11:41:06;0.80;;;0.80;;
19301;SDS011;9785;59.362;12.152;2023-11-21T11:43:35;0.90;;;0.90;;
19301;SDS011;9785;59.362;12.152;2023-11-21T11:46:11;1.13;;;0.90;;
19301;SDS011;9785;59.362;12.152;2023-11-21T11:48:41;0.80;;;0.80;;
19301;SDS011;9785;59.362;12.152;2023-11-21T11:51:13;0.67;;;0.67;;
19301;SDS011;9785;59.362;12.152;2023-11-21T11:53:45;0.80;;;0.80;;
19301;SDS011;9785;59.362;12.152;2023-11-21T11:56:27;0.67;;;0.67;;
19301;SDS011;9785;59.362;12.152;2023-11-21T11:58:57;0.90;;;0.90;;
19301;SDS011;9785;59.362;12.152;2023-11-21T12:01:29;0.70;;;0.70;;
19301;SDS011;9785;59.362;12.152;2023-11-21T12:07:03;0.80;;;0.80;;
19301;SDS011;9785;59.362;12.152;2023-11-21T12:09:33;0.80;;;0.80;;
19301;SDS011;9785;59.362;12.152;2023-11-21T12:12:02;0.80;;;0.80;;
19301;SDS011;9785;59.362;12.152;2023-11-21T12:14:30;0.70;;;0.70;;
19301;SDS011;9785;59.362;12.152;2023-11-21T12:16:59;0.90;;;0.90;;
19301;SDS011;9785;59.362;12.152;2023-11-21T12:19:29;0.70;;;0.70;;
19301;SDS011;9785;59.362;12.152;2023-11-21T12:21:57;0.80;;;0.80;;
19301;SDS011;9785;59.362;12.152;2023-11-21T12:24:28;0.60;;;0.60;;
19301;SDS011;9785;59.362;12.152;2023-11-21T12:26:57;0.80;;;0.80;;
19301;SDS011;9785;59.362;12.152;2023-11-21T12:29:25;0.70;;;0.70;;
19301;SDS011;9785;59.362;12.152;2023-11-21T12:31:56;0.90;;;0.90;;
19301;SDS011;9785;59.362;12.152;2023-11-21T12:34:24;1.03;;;0.80;;
19301;SDS011;9785;59.362;12.152;2023-11-21T12:36:53;0.80;;;0.80;;
19301;SDS011;9785;59.362;12.152;2023-11-21T12:39:22;0.63;;;0.63;;
19301;SDS011;9785;59.362;12.152;2023-11-21T12:41:52;0.83;;;0.70;;
19301;SDS011;9785;59.362;12.152;2023-11-21T12:44:20;0.70;;;0.70;;
19301;SDS011;9785;59.362;12.152;2023-11-21T12:46:50;0.93;;;0.90;;
19301;SDS011;9785;59.362;12.152;2023-11-21T12:49:19;0.80;;;0.80;;
19301;SDS011;9785;59.362;12.152;2023-11-21T12:51:48;0.70;;;0.70;;
19301;SDS011;9785;59.362;12.152;2023-11-21T12:54:16;0.80;;;0.80;;
19301;SDS011;9785;59.362;12.152;2023-11-21T12:56:46;0.50;;;0.50;;
19301;SDS011;9785;59.362;12.152;2023-11-21T12:59:16;0.70;;;0.40;;
19301;SDS011;9785;59.362;12.152;2023-11-21T13:01:45;0.70;;;0.70;;
19301;SDS011;9785;59.362;12.152;2023-11-21T13:04:18;0.73;;;0.73;;
19301;SDS011;9785;59.362;12.152;2023-11-21T13:06:46;0.70;;;0.70;;
19301;SDS011;9785;59.362;12.152;2023-11-21T13:09:14;0.70;;;0.70;;
19301;SDS011;9785;59.362;12.152;2023-11-21T13:11:48;0.50;;;0.50;;
19301;SDS011;9785;59.362;12.152;2023-11-21T13:14:18;0.80;;;0.80;;
19301;SDS011;9785;59.362;12.152;2023-11-21T13:16:46;0.47;;;0.47;;
19301;SDS011;9785;59.362;12.152;2023-11-21T13:19:15;0.53;;;0.53;;
19301;SDS011;9785;59.362;12.152;2023-11-21T13:21:43;0.67;;;0.67;;
19301;SDS011;9785;59.362;12.152;2023-11-21T13:24:12;0.70;;;0.70;;
19301;SDS011;9785;59.362;12.152;2023-11-21T13:26:40;0.80;;;0.80;;
19301;SDS011;9785;59.362;12.152;2023-11-21T13:29:09;0.70;;;0.70;;
19301;SDS011;9785;59.362;12.152;2023-11-21T13:31:40;0.80;;;0.80;;
19301;SDS011;9785;59.362;12.152;2023-11-21T13:34:09;0.50;;;0.50;;
19301;SDS011;9785;59.362;12.152;2023-11-21T13:36:46;0.57;;;0.57;;
19301;SDS011;9785;59.362;12.152;2023-11-21T13:39:14;0.70;;;0.70;;
19301;SDS011;9785;59.362;12.152;2023-11-21T13:41:44;0.70;;;0.70;;
19301;SDS011;9785;59.362;12.152;2023-11-21T13:44:14;0.47;;;0.47;;
19301;SDS011;9785;59.362;12.152;2023-11-21T13:46:55;0.77;;;0.77;;
19301;SDS011;9785;59.362;12.152;2023-11-21T13:49:24;0.70;;;0.70;;
19301;SDS011;9785;59.362;12.152;2023-11-21T13:51:53;2.87;;;0.60;;
19301;SDS011;9785;59.362;12.152;2023-11-21T13:54:22;0.70;;;0.70;;
19301;SDS011;9785;59.362;12.152;2023-11-21T13:56:51;0.60;;;0.60;;
19301;SDS011;9785;59.362;12.152;2023-11-21T13:59:21;1.80;;;0.50;;
19301;SDS011;9785;59.362;12.152;2023-11-21T14:01:52;0.50;;;0.50;;
19301;SDS011;9785;59.362;12.152;2023-11-21T14:04:27;0.60;;;0.60;;
19301;SDS011;9785;59.362;12.152;2023-11-21T14:07:13;0.80;;;0.80;;
19301;SDS011;9785;59.362;12.152;2023-11-21T14:09:52;0.60;;;0.60;;
19301;SDS011;9785;59.362;12.152;2023-11-21T14:12:21;1.07;;;0.67;;
19301;SDS011;9785;59.362;12.152;2023-11-21T14:14:49;0.80;;;0.80;;
19301;SDS011;9785;59.362;12.152;2023-11-21T14:17:18;0.60;;;0.60;;
19301;SDS011;9785;59.362;12.152;2023-11-21T14:19:50;0.70;;;0.70;;
19301;SDS011;9785;59.362;12.152;2023-11-21T14:22:19;0.80;;;0.77;;
19301;SDS011;9785;59.362;12.152;2023-11-21T14:24:47;0.63;;;0.63;;
19301;SDS011;9785;59.362;12.152;2023-11-21T14:27:18;0.60;;;0.60;;
19301;SDS011;9785;59.362;12.152;2023-11-21T14:29:47;0.40;;;0.40;;
19301;SDS011;9785;59.362;12.152;2023-11-21T14:32:15;2.43;;;0.50;;
19301;SDS011;9785;59.362;12.152;2023-11-21T14:34:44;0.60;;;0.60;;
19301;SDS011;9785;59.362;12.152;2023-11-21T14:37:15;0.73;;;0.73;;
19301;SDS011;9785;59.362;12.152;2023-11-21T14:39:43;0.83;;;0.60;;
19301;SDS011;9785;59.362;12.152;2023-11-21T14:42:15;0.70;;;0.70;;
19301;SDS011;9785;59.362;12.152;2023-11-21T14:44:51;0.50;;;0.50;;
19301;SDS011;9785;59.362;12.152;2023-11-21T14:47:21;1.17;;;0.80;;
19301;SDS011;9785;59.362;12.152;2023-11-21T14:49:53;0.60;;;0.60;;
19301;SDS011;9785;59.362;12.152;2023-11-21T14:52:26;0.63;;;0.60;;
19301;SDS011;9785;59.362;12.152;2023-11-21T14:55:01;0.70;;;0.70;;
19301;SDS011;9785;59.362;12.152;2023-11-21T15:08:20;0.80;;;0.80;;
19301;SDS011;9785;59.362;12.152;2023-11-21T15:10:54;0.53;;;0.53;;
19301;SDS011;9785;59.362;12.152;2023-11-21T15:13:22;3.30;;;0.80;;
19301;SDS011;9785;59.362;12.152;2023-11-21T15:15:52;0.70;;;0.70;;
19301;SDS011;9785;59.362;12.152;2023-11-21T15:18:21;1.80;;;0.70;;